Time;durP1;ratioP1;P1;durP2;ratioP2;P2;SDS_P1;SDS_P2;PMS_P1;PMS_P2;Temp;Humidity;BMP_temperature;BMP_pressure;BME280_temperature;BME280_humidity;BME280_pressure;Samples;Min_cycle;Max_cycle;Signal;HPM_P1;HPM_P2
2022/08/07 00:02:02;;;;;;;6.42;5.15;;;;;;;29.51;50.68;101202.10;1699681;84;21077;-49
2022/08/07 00:04:28;;;;;;;7.67;5.78;;;;;;;29.52;50.64;101205.64;1698153;82;21494;-53
2022/08/07 00:06:57;;;;;;;9.60;6.42;;;;;;;29.51;50.68;101206.64;1703074;84;21042;-50
2022/08/07 00:09:23;;;;;;;16.60;6.95;;;;;;;29.50;50.73;101204.94;1701437;84;21320;-51
2022/08/07 00:11:50;;;;;;;5.92;5.15;;;;;;;29.49;50.69;101199.23;1700590;84;21015;-49
2022/08/07 00:14:17;;;;;;;7.75;5.28;;;;;;;29.47;50.76;101193.17;1699730;84;20983;-50
2022/08/07 00:16:44;;;;;;;6.37;5.15;;;;;;;29.45;50.93;101200.00;1697968;83;20991;-50
2022/08/07 00:19:11;;;;;;;5.80;4.62;;;;;;;29.44;50.78;101202.34;1697422;84;21018;-49
2022/08/07 00:21:38;;;;;;;6.67;5.28;;;;;;;29.44;50.55;101192.11;1698216;84;21645;-51
2022/08/07 00:24:05;;;;;;;6.80;5.58;;;;;;;29.43;50.43;101195.80;1697669;84;21053;-54
2022/08/07 00:26:32;;;;;;;5.42;4.92;;;;;;;29.40;50.45;101200.09;1698606;83;21046;-55
2022/08/07 00:28:59;;;;;;;6.72;5.22;;;;;;;29.38;50.61;101196.22;1701009;84;21022;-51
2022/08/07 00:31:26;;;;;;;9.50;5.15;;;;;;;29.36;50.63;101196.00;1700772;84;21049;-50
2022/08/07 00:33:52;;;;;;;8.28;5.80;;;;;;;29.34;50.86;101195.30;1704296;84;21069;-51
2022/08/07 00:36:19;;;;;;;5.90;5.22;;;;;;;29.33;51.00;101200.30;1699355;84;21042;-52
2022/08/07 00:38:46;;;;;;;7.78;5.37;;;;;;;29.30;51.00;101196.58;1699930;83;21037;-49
2022/08/07 00:41:12;;;;;;;5.97;5.37;;;;;;;29.29;51.00;101202.91;1700603;84;21002;-52
2022/08/07 00:43:39;;;;;;;5.83;4.95;;;;;;;29.27;50.96;101204.40;1700312;84;21010;-51
2022/08/07 00:46:06;;;;;;;6.50;5.25;;;;;;;29.26;50.86;101199.19;1693770;84;20999;-49
2022/08/07 00:48:33;;;;;;;8.23;5.40;;;;;;;29.26;50.76;101207.23;1697909;84;21091;-51
2022/08/07 00:51:01;;;;;;;7.60;5.87;;;;;;;29.24;50.61;101202.51;1697767;84;21026;-51
2022/08/07 00:53:28;;;;;;;10.48;5.53;;;;;;;29.24;50.40;101206.53;1699912;84;21029;-51
2022/08/07 00:55:55;;;;;;;7.05;5.50;;;;;;;29.23;50.16;101211.52;1700569;84;21058;-49
2022/08/07 00:58:22;;;;;;;9.75;5.37;;;;;;;29.22;49.90;101206.68;1734671;81;21046;-49
2022/08/07 01:00:49;;;;;;;13.03;4.90;;;;;;;29.19;49.82;101206.95;1730691;82;21030;-52
2022/08/07 01:03:17;;;;;;;6.78;5.20;;;;;;;29.16;49.67;101207.73;1688118;84;21090;-49
2022/08/07 01:05:44;;;;;;;9.70;5.10;;;;;;;29.12;49.60;101204.95;1751099;80;21018;-50
2022/08/07 01:08:11;;;;;;;6.58;5.22;;;;;;;29.11;49.29;101200.56;1698640;84;21068;-49
2022/08/07 01:10:38;;;;;;;5.15;4.65;;;;;;;29.11;48.81;101194.72;1699761;83;21065;-52
2022/08/07 01:13:05;;;;;;;6.28;4.97;;;;;;;29.11;48.67;101192.52;1734177;82;20999;-50
2022/08/07 01:15:32;;;;;;;5.37;4.87;;;;;;;28.85;49.28;101197.61;1723223;81;21022;-55
2022/08/07 01:17:59;;;;;;;5.53;5.03;;;;;;;28.79;49.54;101193.64;1698550;84;21078;-51
2022/08/07 01:20:31;;;;;;;7.05;5.30;;;;;;;28.75;49.78;101194.91;1694315;84;21006;-55
2022/08/07 01:22:59;;;;;;;7.47;5.40;;;;;;;28.72;49.78;101195.68;1731478;81;21026;-52
2022/08/07 01:25:26;;;;;;;5.92;5.20;;;;;;;28.66;50.02;101195.75;1731996;81;20996;-49
2022/08/07 01:27:54;;;;;;;6.65;5.08;;;;;;;28.62;50.00;101195.67;1699173;84;21078;-51
2022/08/07 01:30:23;;;;;;;6.33;5.10;;;;;;;28.58;49.68;101198.76;1699119;83;21054;-49
2022/08/07 01:32:51;;;;;;;5.60;5.05;;;;;;;28.54;49.71;101202.15;1698208;83;21427;-51
2022/08/07 01:35:18;;;;;;;5.75;5.25;;;;;;;28.52;49.75;101204.12;1699898;84;21006;-49
2022/08/07 01:37:47;;;;;;;5.25;4.80;;;;;;;28.52;49.80;101198.77;1736669;81;21066;-51
2022/08/07 01:40:15;;;;;;;6.00;5.50;;;;;;;28.50;49.77;101204.75;1699682;84;21066;-51
2022/08/07 01:42:44;;;;;;;6.07;5.47;;;;;;;28.46;49.79;101199.31;1731438;81;21007;-51
2022/08/07 01:45:11;;;;;;;8.00;5.95;;;;;;;28.45;49.80;101192.77;1733959;81;21050;-49
2022/08/07 01:47:38;;;;;;;5.37;4.87;;;;;;;28.42;49.89;101196.56;1733211;81;21094;-51
2022/08/07 01:50:07;;;;;;;6.20;5.60;;;;;;;28.39;50.03;101199.53;1701142;84;21503;-54
2022/08/07 01:52:34;;;;;;;6.00;5.20;;;;;;;28.38;50.11;101199.16;1735273;81;21015;-55
2022/08/07 01:55:02;;;;;;;7.95;5.92;;;;;;;28.36;50.11;101193.09;1653051;84;21038;-49
2022/08/07 01:57:33;;;;;;;6.35;5.80;;;;;;;28.34;49.90;101196.40;1727080;81;21046;-49
2022/08/07 02:00:04;;;;;;;7.60;5.50;;;;;;;28.33;50.05;101198.73;1739673;81;21003;-49
2022/08/07 02:02:54;;;;;;;6.47;5.87;;;;;;;28.32;49.98;101198.36;1704389;83;21018;-52
2022/08/07 02:05:30;;;;;;;6.58;5.72;;;;;;;28.30;50.24;101196.31;1730446;82;21046;-50
2022/08/07 02:08:02;;;;;;;6.45;5.62;;;;;;;28.28;50.40;101211.66;1658481;85;21536;-51
2022/08/07 02:10:31;;;;;;;6.62;5.80;;;;;;;28.25;50.53;101208.42;1662049;85;21021;-50
2022/08/07 02:12:59;;;;;;;6.30;5.80;;;;;;;28.24;50.63;101204.89;1665827;85;21091;-51
2022/08/07 02:15:28;;;;;;;6.15;5.60;;;;;;;28.21;50.47;101205.18;1721578;82;21494;-52
2022/08/07 02:17:55;;;;;;;8.93;5.87;;;;;;;28.19;50.32;101204.47;1733663;82;21026;-49
2022/08/07 02:20:22;;;;;;;8.05;5.80;;;;;;;28.17;50.22;101209.93;1732503;82;21034;-49
2022/08/07 02:22:50;;;;;;;5.78;5.25;;;;;;;28.14;50.24;101212.03;1729826;82;21053;-52
2022/08/07 02:25:17;;;;;;;6.78;5.60;;;;;;;28.11;50.16;101217.64;1724423;82;21995;-50
2022/08/07 02:27:47;;;;;;;5.50;4.92;;;;;;;28.07;50.41;101217.55;1726490;82;21006;-52
2022/08/07 02:30:14;;;;;;;6.30;5.67;;;;;;;28.04;50.44;101217.84;1731404;82;21086;-51
2022/08/07 02:32:41;;;;;;;6.40;5.80;;;;;;;28.02;50.63;101226.49;1733548;82;20987;-49
2022/08/07 02:35:09;;;;;;;7.08;6.37;;;;;;;28.01;50.75;101220.77;1733402;82;21018;-52
2022/08/07 02:37:39;;;;;;;7.45;6.05;;;;;;;28.00;50.71;101217.75;1731408;82;21564;-50
2022/08/07 02:40:08;;;;;;;6.83;5.73;;;;;;;27.96;50.71;101222.53;1731635;82;21081;-53
2022/08/07 02:42:35;;;;;;;7.58;6.22;;;;;;;27.93;50.65;101220.56;1732023;81;21006;-53
2022/08/07 02:45:05;;;;;;;6.33;5.80;;;;;;;27.91;50.78;101219.84;1722280;82;21038;-50
2022/08/07 02:47:32;;;;;;;6.17;5.58;;;;;;;27.87;51.03;101223.77;1737932;81;21027;-50
2022/08/07 02:50:08;;;;;;;5.97;5.37;;;;;;;27.84;51.08;101221.38;1674623;84;21062;-49
2022/08/07 02:52:40;;;;;;;7.90;5.72;;;;;;;27.82;51.16;101216.65;1673576;84;21062;-48
2022/08/07 02:55:13;;;;;;;6.60;6.00;;;;;;;27.83;51.16;101222.34;1672537;84;21018;-50
2022/08/07 02:57:40;;;;;;;7.40;5.90;;;;;;;27.85;51.01;101227.06;1667877;84;21618;-51
2022/08/07 03:00:09;;;;;;;6.50;5.95;;;;;;;27.82;50.98;101223.33;1647916;85;21100;-50
2022/08/07 03:02:36;;;;;;;6.70;6.10;;;;;;;27.80;50.94;101224.78;1669004;84;21561;-49
2022/08/07 03:05:05;;;;;;;5.85;5.35;;;;;;;27.79;50.93;101227.11;1668954;84;21046;-51
2022/08/07 03:07:33;;;;;;;6.60;6.10;;;;;;;27.79;50.91;101223.58;1675027;84;21069;-52
2022/08/07 03:10:00;;;;;;;7.20;5.75;;;;;;;27.78;50.72;101225.91;1673718;84;21066;-49
2022/08/07 03:12:27;;;;;;;7.83;6.03;;;;;;;27.76;50.61;101227.88;1672932;84;21597;-49
2022/08/07 03:14:55;;;;;;;8.68;6.55;;;;;;;27.75;50.79;101228.84;1689479;82;21034;-52
2022/08/07 03:17:22;;;;;;;7.10;6.40;;;;;;;27.74;50.78;101232.51;1737964;82;21014;-48
2022/08/07 03:19:50;;;;;;;8.78;6.08;;;;;;;27.74;50.70;101236.52;1699230;84;21066;-52
2022/08/07 03:22:18;;;;;;;8.08;6.15;;;;;;;27.71;50.73;101234.09;1699484;84;21090;-50
2022/08/07 03:24:44;;;;;;;6.60;6.00;;;;;;;27.71;50.81;101239.44;1698511;83;21498;-49
2022/08/07 03:27:11;;;;;;;7.10;6.37;;;;;;;27.69;50.59;101235.56;1697836;83;21061;-49
2022/08/07 03:29:46;;;;;;;7.17;6.22;;;;;;;27.67;50.81;101235.33;1697922;83;21009;-50
2022/08/07 03:32:14;;;;;;;7.33;6.62;;;;;;;27.66;50.71;101234.95;1697495;83;21065;-51
2022/08/07 03:34:44;;;;;;;7.72;6.28;;;;;;;27.66;51.01;101234.95;1698170;83;21081;-49
2022/08/07 03:37:10;;;;;;;6.72;6.03;;;;;;;27.84;50.72;101236.08;1732738;81;21086;-51
2022/08/07 03:39:37;;;;;;;9.35;5.67;;;;;;;27.89;50.76;101236.52;1705713;82;20999;-50
2022/08/07 03:42:05;;;;;;;6.83;6.22;;;;;;;27.88;50.86;101232.16;1725988;81;21042;-52
2022/08/07 03:44:33;;;;;;;7.83;6.97;;;;;;;27.87;50.91;101233.13;1732166;82;21031;-50
2022/08/07 03:47:00;;;;;;;9.00;6.33;;;;;;;27.88;51.02;101234.84;1726066;81;20979;-50
2022/08/07 03:49:27;;;;;;;7.08;6.37;;;;;;;27.89;50.89;101233.36;1726180;81;21027;-54
2022/08/07 03:51:54;;;;;;;7.53;6.75;;;;;;;27.93;50.88;101232.59;1724326;81;21086;-50
2022/08/07 03:54:21;;;;;;;7.60;6.80;;;;;;;28.01;50.72;101235.48;1710015;82;21494;-49
2022/08/07 03:56:50;;;;;;;7.53;6.83;;;;;;;28.07;50.59;101241.16;1723287;81;21019;-51
2022/08/07 03:59:16;;;;;;;6.95;5.92;;;;;;;28.10;50.64;101246.73;1721224;81;21031;-51
2022/08/07 04:01:45;;;;;;;8.08;7.40;;;;;;;28.11;50.73;101253.28;1719484;83;21594;-48
2022/08/07 04:04:14;;;;;;;7.37;6.70;;;;;;;28.12;50.70;101248.78;1718055;81;21019;-48
2022/08/07 04:06:43;;;;;;;8.25;6.90;;;;;;;28.13;50.64;101247.82;1718673;81;20999;-49
2022/08/07 04:09:12;;;;;;;8.38;7.58;;;;;;;28.15;50.58;101249.88;1717243;81;21523;-50
2022/08/07 04:11:39;;;;;;;7.62;6.92;;;;;;;28.14;50.61;101248.16;1718671;81;21059;-50
2022/08/07 04:14:06;;;;;;;8.45;6.90;;;;;;;28.14;50.69;101253.52;1714157;83;21055;-48
2022/08/07 04:16:34;;;;;;;7.03;6.40;;;;;;;28.12;50.44;101250.98;1719645;81;20999;-52
2022/08/07 04:19:03;;;;;;;8.08;6.80;;;;;;;28.11;50.43;101257.78;1718211;83;20972;-52
2022/08/07 04:21:31;;;;;;;7.83;7.12;;;;;;;28.10;50.64;101257.44;1714040;81;21039;-48
2022/08/07 04:23:58;;;;;;;8.00;6.50;;;;;;;28.12;50.66;101256.81;1716773;81;21051;-50
2022/08/07 04:26:25;;;;;;;8.10;6.80;;;;;;;28.16;50.60;101259.58;1719135;81;21555;-49
2022/08/07 04:28:52;;;;;;;10.23;7.40;;;;;;;28.18;50.29;101260.29;1720289;83;21604;-48
2022/08/07 04:31:18;;;;;;;8.30;6.75;;;;;;;28.19;50.40;101261.48;1721439;81;21019;-50
2022/08/07 04:33:45;;;;;;;7.17;6.58;;;;;;;28.18;50.36;101255.80;1691108;83;21502;-51
2022/08/07 04:36:13;;;;;;;7.45;6.75;;;;;;;28.20;50.44;101254.31;1729365;81;21010;-52
2022/08/07 04:38:40;;;;;;;8.48;7.40;;;;;;;28.21;50.17;101261.38;1683468;82;21041;-48
2022/08/07 04:41:07;;;;;;;11.30;8.05;;;;;;;28.19;50.25;101264.67;1728698;81;21061;-49
2022/08/07 04:43:37;;;;;;;8.75;7.87;;;;;;;28.17;50.41;101265.30;1688430;82;21029;-53
2022/08/07 04:46:34;;;;;;;7.78;7.08;;;;;;;28.17;50.77;101268.80;1728459;81;21042;-50
2022/08/07 04:49:25;;;;;;;8.50;7.70;;;;;;;28.20;50.95;101270.37;1728624;81;21080;-51
2022/08/07 04:52:08;;;;;;;7.62;6.90;;;;;;;28.21;51.10;101270.74;1725496;81;21455;-52
2022/08/07 04:54:47;;;;;;;8.23;6.95;;;;;;;28.22;51.17;101261.72;1729096;81;21471;-51
2022/08/07 04:58:00;;;;;;;8.05;7.25;;;;;;;28.22;51.24;101263.05;1721038;81;21113;-51
2022/08/07 05:00:58;;;;;;;8.35;7.65;;;;;;;28.23;51.36;101266.10;1681231;84;21022;-54
2022/08/07 05:03:34;;;;;;;8.78;7.85;;;;;;;28.24;51.49;101269.12;1728317;81;21019;-50
2022/08/07 05:06:08;;;;;;;8.85;7.87;;;;;;;28.24;51.59;101270.45;1752140;81;21031;-51
2022/08/07 05:08:53;;;;;;;8.43;7.50;;;;;;;28.25;51.49;101273.50;1728187;81;21035;-50
2022/08/07 05:11:31;;;;;;;8.45;7.62;;;;;;;28.26;51.77;101277.86;1640511;86;21598;-50
2022/08/07 05:14:05;;;;;;;8.58;7.78;;;;;;;28.16;52.18;101275.63;1688287;83;21101;-52
2022/08/07 05:16:32;;;;;;;8.75;8.05;;;;;;;28.06;52.27;101274.73;1621892;87;21570;-52
2022/08/07 05:19:04;;;;;;;8.83;7.95;;;;;;;28.06;52.42;101282.77;1621360;88;21097;-49
2022/08/07 05:21:31;;;;;;;8.50;7.72;;;;;;;28.20;51.86;101289.10;1617753;86;21053;-51
2022/08/07 05:24:01;;;;;;;8.33;7.53;;;;;;;28.29;51.72;101292.33;1620173;88;21078;-53
2022/08/07 05:26:32;;;;;;;8.13;7.40;;;;;;;28.20;52.35;101285.09;1605203;88;21539;-56
2022/08/07 05:29:02;;;;;;;9.53;7.87;;;;;;;28.17;52.28;101290.20;1621284;88;21053;-50
2022/08/07 05:31:32;;;;;;;9.10;8.38;;;;;;;28.21;52.75;101288.13;1618553;88;21078;-51
2022/08/07 05:34:00;;;;;;;9.33;8.53;;;;;;;28.25;52.82;101288.70;1618952;87;21114;-49
2022/08/07 05:36:27;;;;;;;8.23;7.42;;;;;;;28.29;53.01;101285.63;1608893;88;21066;-50
2022/08/07 05:38:55;;;;;;;10.23;7.97;;;;;;;28.53;52.53;101294.66;1615989;88;21580;-52
2022/08/07 05:41:22;;;;;;;7.97;7.28;;;;;;;28.51;52.70;101288.59;1621485;88;21070;-50
2022/08/07 05:43:52;;;;;;;8.50;7.72;;;;;;;28.64;52.56;101291.45;1617544;88;21078;-50
2022/08/07 05:46:19;;;;;;;9.15;8.33;;;;;;;28.79;52.18;101290.06;1616951;88;21066;-51
2022/08/07 05:48:45;;;;;;;9.48;7.92;;;;;;;28.96;51.81;101288.06;1654731;85;21543;-51
2022/08/07 05:51:12;;;;;;;9.20;8.30;;;;;;;29.11;51.66;101290.34;1672234;85;21084;-51
2022/08/07 05:53:39;;;;;;;9.33;8.43;;;;;;;29.30;51.14;101287.72;1672119;85;21602;-51
2022/08/07 05:56:08;;;;;;;8.28;7.50;;;;;;;29.55;50.57;101288.50;1658954;86;21082;-49
2022/08/07 05:58:39;;;;;;;7.92;7.12;;;;;;;29.44;50.58;101288.14;1668171;84;21047;-50
2022/08/07 06:01:10;;;;;;;9.00;7.97;;;;;;;29.52;50.66;101291.45;1672446;85;21062;-52
2022/08/07 06:03:39;;;;;;;8.65;7.90;;;;;;;29.62;50.50;101293.63;1671719;84;21030;-51
2022/08/07 06:06:06;;;;;;;9.03;8.13;;;;;;;29.96;49.58;101292.70;1672662;85;21031;-50
2022/08/07 06:08:33;;;;;;;8.30;7.53;;;;;;;30.17;48.92;101291.50;1677741;85;21565;-52
2022/08/07 06:11:00;;;;;;;8.60;7.75;;;;;;;30.36;48.47;101296.84;1681621;85;21003;-54
2022/08/07 06:13:26;;;;;;;8.80;8.10;;;;;;;30.52;48.71;101295.70;1715579;82;21047;-56
2022/08/07 06:15:53;;;;;;;9.23;8.33;;;;;;;30.65;48.67;101299.88;1738371;81;21087;-53
2022/08/07 06:18:22;;;;;;;8.75;7.97;;;;;;;30.52;48.65;101299.73;1696562;84;21006;-52
2022/08/07 06:20:49;;;;;;;8.50;7.75;;;;;;;30.50;48.86;101301.72;1700046;84;21013;-51
2022/08/07 06:23:15;;;;;;;9.03;8.13;;;;;;;30.47;48.81;101298.01;1734518;81;21080;-50
2022/08/07 06:25:44;;;;;;;8.85;8.05;;;;;;;30.45;48.57;101300.48;1700249;84;21073;-51
2022/08/07 06:28:10;;;;;;;8.98;8.05;;;;;;;30.42;48.54;101296.25;1697843;84;21018;-55
2022/08/07 06:30:38;;;;;;;8.53;7.72;;;;;;;30.39;48.50;101289.84;1699879;84;21002;-51
2022/08/07 06:33:07;;;;;;;8.18;7.58;;;;;;;30.38;48.41;101292.16;1701137;83;21014;-57
2022/08/07 06:35:35;;;;;;;8.88;8.08;;;;;;;30.35;48.29;101289.80;1700989;84;21050;-52
2022/08/07 06:38:05;;;;;;;8.85;8.03;;;;;;;30.29;48.54;101291.73;1734770;81;21050;-54
2022/08/07 06:40:38;;;;;;;8.45;7.78;;;;;;;30.26;48.86;101293.31;1700460;84;21485;-52
2022/08/07 06:43:07;;;;;;;8.73;7.92;;;;;;;30.22;48.99;101291.92;1702224;83;21021;-51
2022/08/07 06:45:39;;;;;;;8.23;7.42;;;;;;;30.22;49.25;101279.84;1704826;83;21512;-53
2022/08/07 06:48:07;;;;;;;9.10;7.83;;;;;;;30.24;49.33;101284.56;1718625;82;21077;-54
2022/08/07 06:50:36;;;;;;;9.10;8.08;;;;;;;30.35;49.09;101289.80;1697502;83;21037;-49
2022/08/07 06:53:04;;;;;;;8.75;7.92;;;;;;;30.50;48.61;101285.61;1703785;83;21069;-51
2022/08/07 06:55:31;;;;;;;8.23;7.50;;;;;;;30.32;49.16;101290.08;1702313;83;21101;-51
2022/08/07 06:58:08;;;;;;;9.30;8.33;;;;;;;30.31;49.48;101287.05;1695631;83;21084;-52
2022/08/07 07:00:39;;;;;;;8.70;7.90;;;;;;;30.33;49.69;101285.07;1738441;80;21038;-50
2022/08/07 07:03:07;;;;;;;8.68;7.92;;;;;;;30.37;49.39;101291.84;1740346;80;21034;-53
2022/08/07 07:05:34;;;;;;;8.80;8.00;;;;;;;30.60;48.69;101292.78;1736503;80;21058;-52
2022/08/07 07:08:00;;;;;;;8.50;7.80;;;;;;;30.51;48.77;101290.00;1723371;82;21089;-50
2022/08/07 07:10:29;;;;;;;8.68;7.95;;;;;;;30.70;48.36;101294.92;1679191;83;21018;-54
2022/08/07 07:13:12;;;;;;;9.10;8.30;;;;;;;30.61;48.45;101292.62;1715161;82;20997;-53
2022/08/07 07:15:45;;;;;;;8.20;7.35;;;;;;;30.70;48.41;101289.06;1713536;83;21006;-55
2022/08/07 07:18:19;;;;;;;8.20;7.42;;;;;;;30.73;48.32;101294.64;1719490;82;21470;-51
2022/08/07 07:20:55;;;;;;;8.60;7.90;;;;;;;31.05;47.95;101283.78;1720150;82;21017;-49
2022/08/07 07:23:23;;;;;;;9.10;8.10;;;;;;;31.23;47.28;101283.78;1713893;81;21116;-56
2022/08/07 07:25:51;;;;;;;8.00;7.20;;;;;;;31.21;47.24;101288.47;1712488;81;21052;-50
2022/08/07 07:28:24;;;;;;;8.08;7.37;;;;;;;31.30;47.26;101285.69;1713471;82;20985;-50
2022/08/07 07:30:58;;;;;;;8.35;7.33;;;;;;;31.46;47.36;101283.70;1713239;81;21046;-50
2022/08/07 07:33:25;;;;;;;8.00;7.30;;;;;;;31.60;46.82;101285.83;1681421;84;21067;-53
2022/08/07 07:35:52;;;;;;;8.15;7.40;;;;;;;31.69;46.52;101288.95;1681728;84;21047;-52
2022/08/07 07:38:21;;;;;;;9.05;7.75;;;;;;;31.88;45.95;101290.08;1683479;84;21040;-49
2022/08/07 07:40:48;;;;;;;8.08;7.47;;;;;;;31.90;45.60;101288.06;1670944;85;21035;-53
2022/08/07 07:43:15;;;;;;;7.72;7.12;;;;;;;31.81;45.52;101293.07;1633427;87;21091;-53
2022/08/07 07:45:43;;;;;;;7.85;7.08;;;;;;;31.83;44.87;101291.06;1666175;85;21030;-52
2022/08/07 07:48:10;;;;;;;7.55;6.85;;;;;;;31.99;44.71;101291.20;1665134;85;21030;-53
2022/08/07 07:50:37;;;;;;;8.13;7.35;;;;;;;31.95;44.83;101292.52;1669820;85;21122;-50
2022/08/07 07:53:05;;;;;;;8.20;7.40;;;;;;;32.07;45.13;101302.02;1633885;87;21601;-50
2022/08/07 07:55:31;;;;;;;8.75;7.85;;;;;;;31.96;45.94;101301.45;1653966;85;21099;-52
2022/08/07 07:57:58;;;;;;;7.62;6.92;;;;;;;32.03;46.14;101306.53;1634948;87;21083;-52
2022/08/07 08:00:26;;;;;;;8.30;7.50;;;;;;;32.17;45.99;101307.81;1657535;85;21058;-53
2022/08/07 08:02:54;;;;;;;7.80;7.10;;;;;;;32.23;45.92;101312.06;1633665;87;21014;-52
2022/08/07 08:05:22;;;;;;;7.92;7.15;;;;;;;32.29;45.63;101320.00;1665631;85;21050;-50
2022/08/07 08:07:49;;;;;;;7.78;6.87;;;;;;;32.35;45.57;101326.95;1634246;87;21092;-52
2022/08/07 08:10:16;;;;;;;7.35;6.65;;;;;;;32.42;45.58;101321.77;1685221;82;21034;-49
2022/08/07 08:12:43;;;;;;;7.95;7.17;;;;;;;32.47;45.07;101322.14;1739936;81;21023;-53
2022/08/07 08:15:10;;;;;;;8.73;7.53;;;;;;;32.54;44.97;101324.02;1731202;81;21039;-50
2022/08/07 08:17:37;;;;;;;7.05;6.22;;;;;;;32.60;44.91;101317.17;1697973;84;21022;-49
2022/08/07 08:20:07;;;;;;;6.60;6.00;;;;;;;32.66;44.06;101317.87;1749944;81;21022;-55
2022/08/07 08:28:24;;;;;;;4.65;4.25;;;;;;;32.86;40.73;101326.02;1584076;88;21621;-52
2022/08/07 08:30:58;;;;;;;6.05;4.80;;;;;;;32.95;39.49;101326.41;1586143;88;21068;-52
2022/08/07 08:33:28;;;;;;;8.38;4.28;;;;;;;33.04;38.79;101325.92;1586898;88;21098;-53
2022/08/07 08:35:55;;;;;;;8.50;4.20;;;;;;;33.10;37.09;101328.81;1583134;88;21029;-57
2022/08/07 08:38:25;;;;;;;4.00;3.72;;;;;;;33.18;36.35;101319.92;1588788;88;21085;-54
2022/08/07 08:41:14;;;;;;;5.20;3.80;;;;;;;33.27;36.15;101322.45;1587820;88;21611;-55
2022/08/07 08:44:05;;;;;;;4.75;4.33;;;;;;;33.36;35.61;101329.56;1593974;88;21160;-50
2022/08/07 08:46:50;;;;;;;4.60;4.20;;;;;;;33.44;35.16;101322.83;1588857;89;21059;-51
2022/08/07 08:49:54;;;;;;;4.30;3.50;;;;;;;33.54;35.38;101326.23;1586662;89;21653;-53
2022/08/07 08:52:28;;;;;;;4.97;3.75;;;;;;;33.63;34.85;101328.44;1580244;89;21137;-55
2022/08/07 08:55:15;;;;;;;7.42;3.70;;;;;;;33.74;33.71;101321.86;1586710;90;21065;-53
2022/08/07 08:58:02;;;;;;;4.05;3.70;;;;;;;33.84;34.19;101322.53;1592049;89;21018;-54
2022/08/07 09:00:33;;;;;;;3.90;3.60;;;;;;;33.94;33.95;101313.74;1506283;94;21156;-53
2022/08/07 09:03:22;;;;;;;4.30;3.87;;;;;;;34.02;33.24;101316.46;1503717;94;21118;-52
2022/08/07 09:06:00;;;;;;;4.03;3.72;;;;;;;34.10;33.15;101312.39;1464569;96;21620;-52
2022/08/07 09:08:44;;;;;;;21.20;4.60;;;;;;;34.20;32.95;101306.29;1466407;96;21113;-51
2022/08/07 09:11:37;;;;;;;4.60;4.15;;;;;;;34.27;32.65;101305.41;1468509;96;21109;-49
2022/08/07 09:14:21;;;;;;;4.95;3.75;;;;;;;34.35;32.63;101306.77;1493235;96;21104;-52
2022/08/07 09:17:11;;;;;;;4.55;4.15;;;;;;;34.44;32.13;101313.81;1490115;96;21103;-53
2022/08/07 09:19:56;;;;;;;7.70;4.28;;;;;;;34.50;32.10;101304.19;1453786;97;21151;-52
2022/08/07 09:23:08;;;;;;;6.03;4.17;;;;;;;34.58;31.82;101306.89;1481923;96;21629;-52
2022/08/07 09:25:59;;;;;;;4.78;4.30;;;;;;;34.66;31.71;101310.91;1466421;96;21116;-49
2022/08/07 09:28:40;;;;;;;4.25;3.85;;;;;;;34.73;32.11;101317.28;1487179;95;21135;-50
2022/08/07 09:31:33;;;;;;;4.78;4.37;;;;;;;34.78;32.09;101316.25;1494972;94;21161;-52
2022/08/07 09:34:17;;;;;;;5.15;4.60;;;;;;;34.81;32.04;101315.88;1496477;94;21122;-50
2022/08/07 09:37:06;;;;;;;5.22;4.42;;;;;;;34.85;32.00;101313.16;1494351;94;21105;-52
2022/08/07 09:39:41;;;;;;;7.45;4.10;;;;;;;34.89;31.62;101313.13;1517303;92;21107;-52
2022/08/07 09:42:35;;;;;;;5.37;4.65;;;;;;;34.91;31.66;101312.45;1520368;92;21108;-54
2022/08/07 09:45:25;;;;;;;4.95;4.33;;;;;;;34.96;31.87;101319.53;1500538;94;21119;-57
2022/08/07 09:48:16;;;;;;;4.78;4.28;;;;;;;35.01;31.68;101319.89;1478424;95;21629;-50
2022/08/07 09:51:11;;;;;;;6.30;4.60;;;;;;;35.06;31.97;101320.18;1517044;92;21091;-53
2022/08/07 09:53:38;;;;;;;5.87;4.80;;;;;;;35.12;32.53;101315.41;1565256;92;21156;-51
2022/08/07 09:56:39;;;;;;;5.55;4.65;;;;;;;35.19;32.56;101312.84;1577900;88;21544;-51
2022/08/07 09:59:28;;;;;;;4.58;4.17;;;;;;;35.25;32.32;101315.33;1669869;83;21087;-50
2022/08/07 10:02:29;;;;;;;4.92;4.53;;;;;;;35.33;32.61;101313.41;1675884;84;21111;-50
2022/08/07 10:05:14;;;;;;;5.95;4.53;;;;;;;35.40;33.51;101308.97;1687206;83;21143;-50
2022/08/07 10:08:10;;;;;;;5.03;4.60;;;;;;;35.45;32.60;101312.50;1699938;83;21033;-50
2022/08/07 10:11:16;;;;;;;5.47;4.10;;;;;;;35.49;32.99;101313.84;1686268;84;21093;-52
2022/08/07 10:14:26;;;;;;;5.20;4.70;;;;;;;35.52;32.89;101307.55;1689848;84;21054;-52
2022/08/07 10:17:19;;;;;;;7.28;5.20;;;;;;;35.58;33.84;101310.88;1688065;83;21094;-51
2022/08/07 10:20:03;;;;;;;5.92;4.65;;;;;;;35.65;34.23;101309.65;1667737;86;21039;-50
2022/08/07 10:22:57;;;;;;;6.30;5.10;;;;;;;35.72;33.60;101299.75;1674619;85;21058;-50
2022/08/07 10:25:38;;;;;;;4.87;4.30;;;;;;;35.72;32.66;101297.89;1679384;84;21062;-52
2022/08/07 10:28:25;;;;;;;9.35;4.50;;;;;;;35.74;32.17;101293.14;1685512;84;21617;-53
2022/08/07 10:31:17;;;;;;;5.95;4.05;;;;;;;35.76;31.68;101294.30;1672676;84;21014;-53
2022/08/07 10:34:04;;;;;;;5.85;3.52;;;;;;;35.76;31.42;101293.80;1677013;84;21047;-52
2022/08/07 10:36:46;;;;;;;6.60;4.42;;;;;;;35.78;31.11;101296.31;1667693;84;21063;-52
2022/08/07 10:39:58;;;;;;;6.50;4.30;;;;;;;35.80;30.63;101291.55;1660802;84;21106;-53
2022/08/07 10:43:07;;;;;;;5.12;3.98;;;;;;;35.85;30.59;101295.41;1674727;84;21059;-49
2022/08/07 10:45:37;;;;;;;5.42;4.10;;;;;;;35.93;31.55;101301.25;1672193;84;21003;-52
2022/08/07 10:48:38;;;;;;;5.97;4.25;;;;;;;35.98;31.14;101292.11;1676683;84;21488;-51
2022/08/07 10:51:21;;;;;;;4.65;4.05;;;;;;;36.01;30.83;101295.78;1663939;84;21542;-51
2022/08/07 10:54:29;;;;;;;4.87;3.55;;;;;;;36.05;30.34;101292.19;1664420;84;21055;-52
2022/08/07 10:57:28;;;;;;;8.38;4.40;;;;;;;36.08;30.19;101288.61;1607702;89;21035;-51
2022/08/07 11:00:13;;;;;;;6.12;3.90;;;;;;;36.14;29.86;101290.58;1541024;92;21041;-53
2022/08/07 11:03:06;;;;;;;4.22;3.83;;;;;;;36.19;29.54;101289.48;1548699;93;21088;-55
2022/08/07 11:05:48;;;;;;;3.85;3.50;;;;;;;36.24;29.63;101283.52;1539654;93;21067;-52
2022/08/07 11:08:56;;;;;;;5.83;3.55;;;;;;;36.29;29.12;101287.36;1558033;91;21078;-52
2022/08/07 11:11:45;;;;;;;4.47;3.60;;;;;;;36.33;28.88;101286.47;1463721;97;21149;-53
2022/08/07 11:14:40;;;;;;;5.17;3.50;;;;;;;36.38;28.89;101286.22;1448369;98;21152;-52
2022/08/07 11:17:15;;;;;;;3.92;3.62;;;;;;;36.44;29.77;101288.72;1437271;99;21160;-49
2022/08/07 11:19:59;;;;;;;8.43;5.15;;;;;;;36.52;30.50;101287.29;1448591;97;21601;-49
2022/08/07 11:22:37;;;;;;;5.20;4.58;;;;;;;36.57;32.42;101298.39;1469668;97;21627;-48
2022/08/07 11:25:25;;;;;;;5.00;4.50;;;;;;;36.59;32.57;101289.05;1420751;99;21181;-50
2022/08/07 11:28:03;;;;;;;4.62;4.22;;;;;;;36.55;32.97;101291.81;1380374;103;21768;-50
2022/08/07 11:30:53;;;;;;;4.97;4.00;;;;;;;36.50;32.67;101280.67;1381400;103;22377;-48
2022/08/07 11:33:44;;;;;;;4.28;3.80;;;;;;;36.49;31.96;101283.08;1381722;103;21704;-49
2022/08/07 11:36:31;;;;;;;4.87;4.10;;;;;;;36.50;30.79;101282.03;1380101;103;21153;-55
2022/08/07 11:39:24;;;;;;;4.10;3.80;;;;;;;36.52;31.44;101281.87;1374534;103;21159;-51
2022/08/07 11:42:00;;;;;;;4.92;4.47;;;;;;;36.51;32.07;101283.73;1391301;102;21136;-51
2022/08/07 11:44:50;;;;;;;4.67;4.20;;;;;;;36.47;32.45;101277.00;1394749;102;21101;-49
2022/08/07 11:47:51;;;;;;;6.85;4.12;;;;;;;36.44;33.24;101283.30;1357938;105;21143;-49
2022/08/07 11:50:36;;;;;;;4.55;4.00;;;;;;;36.42;34.56;101282.14;1351168;105;21147;-51
2022/08/07 11:53:28;;;;;;;6.10;4.97;;;;;;;36.38;34.78;101283.52;1349230;105;21216;-53
2022/08/07 11:56:21;;;;;;;5.65;4.10;;;;;;;36.35;34.87;101274.92;1358217;105;21204;-52
2022/08/07 11:59:32;;;;;;;4.60;4.20;;;;;;;36.31;34.55;101270.41;1364182;103;21145;-51
2022/08/07 12:02:25;;;;;;;5.12;3.77;;;;;;;36.27;33.33;101265.00;1369524;99;21625;-52
2022/08/07 12:05:32;;;;;;;7.58;4.03;;;;;;;36.23;32.86;101260.98;1412183;101;21234;-49